sensor_id;sensor_type;location;lat;lon;timestamp;pressure;altitude;pressure_sealevel;temperature;humidity
69980;BME280;57318;56.232;43.944;2024-02-23T00:01:28;100170.31;;;-8.03;nan
69980;BME280;57318;56.232;43.944;2024-02-23T00:03:54;100169.44;;;-8.05;nan
69980;BME280;57318;56.232;43.944;2024-02-23T00:06:21;100164.25;;;-8.06;nan
69980;BME280;57318;56.232;43.944;2024-02-23T00:08:48;100160.78;;;-8.08;nan
69980;BME280;57318;56.232;43.944;2024-02-23T00:11:14;100168.56;;;-8.05;nan
69980;BME280;57318;56.232;43.944;2024-02-23T00:13:39;100162.56;;;-8.04;nan
69980;BME280;57318;56.232;43.944;2024-02-23T00:16:05;100157.41;;;-8.04;nan
69980;BME280;57318;56.232;43.944;2024-02-23T00:18:31;100165.09;;;-8.09;nan
69980;BME280;57318;56.232;43.944;2024-02-23T00:20:56;100159.97;;;-8.03;nan
69980;BME280;57318;56.232;43.944;2024-02-23T00:23:22;100158.25;;;-8.04;nan
69980;BME280;57318;56.232;43.944;2024-02-23T00:25:48;100160.84;;;-8.02;nan
69980;BME280;57318;56.232;43.944;2024-02-23T00:28:13;100159.09;;;-8.08;nan
69980;BME280;57318;56.232;43.944;2024-02-23T00:30:39;100159.97;;;-8.06;nan
69980;BME280;57318;56.232;43.944;2024-02-23T00:33:04;100149.66;;;-8.06;nan
69980;BME280;57318;56.232;43.944;2024-02-23T00:35:30;100145.34;;;-8.05;nan
69980;BME280;57318;56.232;43.944;2024-02-23T00:37:57;100155.63;;;-8.08;nan
69980;BME280;57318;56.232;43.944;2024-02-23T00:40:23;100152.16;;;-8.15;nan
69980;BME280;57318;56.232;43.944;2024-02-23T00:42:49;100157.31;;;-8.13;nan
69980;BME280;57318;56.232;43.944;2024-02-23T00:45:15;100152.19;;;-8.12;nan
69980;BME280;57318;56.232;43.944;2024-02-23T00:47:40;100151.34;;;-8.11;nan
69980;BME280;57318;56.232;43.944;2024-02-23T00:50:06;100146.19;;;-8.11;nan
69980;BME280;57318;56.232;43.944;2024-02-23T00:52:32;100152.16;;;-8.13;nan
69980;BME280;57318;56.232;43.944;2024-02-23T00:54:58;100162.47;;;-8.13;nan
69980;BME280;57318;56.232;43.944;2024-02-23T00:57:24;100165.88;;;-8.18;nan
69980;BME280;57318;56.232;43.944;2024-02-23T00:59:56;100161.56;;;-8.22;nan
69980;BME280;57318;56.232;43.944;2024-02-23T01:02:21;100158.13;;;-8.19;nan
69980;BME280;57318;56.232;43.944;2024-02-23T01:04:47;100167.59;;;-8.18;nan
69980;BME280;57318;56.232;43.944;2024-02-23T01:07:13;100171.91;;;-8.20;nan
69980;BME280;57318;56.232;43.944;2024-02-23T01:09:38;100165.88;;;-8.18;nan
69980;BME280;57318;56.232;43.944;2024-02-23T01:12:05;100170.16;;;-8.21;nan
69980;BME280;57318;56.232;43.944;2024-02-23T01:14:31;100170.16;;;-8.23;nan
69980;BME280;57318;56.232;43.944;2024-02-23T01:16:56;100164.09;;;-8.26;nan
69980;BME280;57318;56.232;43.944;2024-02-23T01:19:22;100165.78;;;-8.28;nan
69980;BME280;57318;56.232;43.944;2024-02-23T01:21:49;100160.63;;;-8.33;nan
69980;BME280;57318;56.232;43.944;2024-02-23T01:24:21;100160.56;;;-8.39;nan
69980;BME280;57318;56.232;43.944;2024-02-23T01:26:47;100165.72;;;-8.41;nan
69980;BME280;57318;56.232;43.944;2024-02-23T01:29:13;100163.13;;;-8.42;nan
69980;BME280;57318;56.232;43.944;2024-02-23T01:31:38;100157.97;;;-8.44;nan
69980;BME280;57318;56.232;43.944;2024-02-23T01:34:04;100155.34;;;-8.51;nan
69980;BME280;57318;56.232;43.944;2024-02-23T01:36:29;100150.19;;;-8.50;nan
69980;BME280;57318;56.232;43.944;2024-02-23T01:38:55;100148.44;;;-8.53;nan
69980;BME280;57318;56.232;43.944;2024-02-23T01:41:21;100148.41;;;-8.56;nan
69980;BME280;57318;56.232;43.944;2024-02-23T01:43:46;100130.34;;;-8.60;nan
69980;BME280;57318;56.232;43.944;2024-02-23T01:46:12;100148.34;;;-8.63;nan
69980;BME280;57318;56.232;43.944;2024-02-23T01:48:38;100153.50;;;-8.62;nan
69980;BME280;57318;56.232;43.944;2024-02-23T01:51:04;100154.41;;;-8.60;nan
69980;BME280;57318;56.232;43.944;2024-02-23T01:53:30;100153.47;;;-8.65;nan
69980;BME280;57318;56.232;43.944;2024-02-23T01:55:57;100160.34;;;-8.67;nan
69980;BME280;57318;56.232;43.944;2024-02-23T01:58:23;100170.63;;;-8.68;nan
69980;BME280;57318;56.232;43.944;2024-02-23T02:00:49;100167.16;;;-8.74;nan
69980;BME280;57318;56.232;43.944;2024-02-23T02:03:15;100164.56;;;-8.75;nan
69980;BME280;57318;56.232;43.944;2024-02-23T02:05:41;100159.41;;;-8.77;nan
69980;BME280;57318;56.232;43.944;2024-02-23T02:08:07;100163.66;;;-8.79;nan
69980;BME280;57318;56.232;43.944;2024-02-23T02:10:32;100173.06;;;-8.82;nan
69980;BME280;57318;56.232;43.944;2024-02-23T02:13:05;100167.91;;;-8.84;nan
69980;BME280;57318;56.232;43.944;2024-02-23T02:15:31;100166.16;;;-8.85;nan
69980;BME280;57318;56.232;43.944;2024-02-23T02:17:57;100172.09;;;-8.92;nan
69980;BME280;57318;56.232;43.944;2024-02-23T02:20:27;100178.13;;;-8.90;nan
69980;BME280;57318;56.232;43.944;2024-02-23T02:22:53;100179.84;;;-8.92;nan
69980;BME280;57318;56.232;43.944;2024-02-23T02:25:19;100174.72;;;-8.89;nan
69980;BME280;57318;56.232;43.944;2024-02-23T02:27:45;100185.00;;;-8.91;nan
69980;BME280;57318;56.232;43.944;2024-02-23T02:30:12;100179.84;;;-8.91;nan
69980;BME280;57318;56.232;43.944;2024-02-23T02:32:38;100183.25;;;-8.92;nan
69980;BME280;57318;56.232;43.944;2024-02-23T02:35:04;100172.94;;;-8.93;nan
69980;BME280;57318;56.232;43.944;2024-02-23T02:37:30;100185.00;;;-8.92;nan
69980;BME280;57318;56.232;43.944;2024-02-23T02:39:55;100168.69;;;-8.93;nan
69980;BME280;57318;56.232;43.944;2024-02-23T02:42:21;100175.50;;;-8.95;nan
69980;BME280;57318;56.232;43.944;2024-02-23T02:44:46;100179.81;;;-8.94;nan
69980;BME280;57318;56.232;43.944;2024-02-23T02:47:12;100185.84;;;-8.92;nan
69980;BME280;57318;56.232;43.944;2024-02-23T02:49:39;100195.25;;;-8.95;nan
69980;BME280;57318;56.232;43.944;2024-02-23T02:52:05;100183.25;;;-8.92;nan
69980;BME280;57318;56.232;43.944;2024-02-23T02:54:31;100182.38;;;-8.95;nan
69980;BME280;57318;56.232;43.944;2024-02-23T02:56:57;100192.72;;;-8.92;nan
69980;BME280;57318;56.232;43.944;2024-02-23T02:59:23;100179.00;;;-8.91;nan
69980;BME280;57318;56.232;43.944;2024-02-23T03:01:49;100184.13;;;-8.93;nan
69980;BME280;57318;56.232;43.944;2024-02-23T03:04:15;100189.31;;;-8.90;nan
69980;BME280;57318;56.232;43.944;2024-02-23T03:06:40;100178.13;;;-8.90;nan
69980;BME280;57318;56.232;43.944;2024-02-23T03:09:06;100187.56;;;-8.92;nan
69980;BME280;57318;56.232;43.944;2024-02-23T03:11:32;100192.75;;;-8.89;nan
69980;BME280;57318;56.232;43.944;2024-02-23T03:13:58;100191.00;;;-8.90;nan
69980;BME280;57318;56.232;43.944;2024-02-23T03:16:24;100193.59;;;-8.90;nan
69980;BME280;57318;56.232;43.944;2024-02-23T03:18:52;100198.72;;;-8.90;nan
69980;BME280;57318;56.232;43.944;2024-02-23T03:21:20;100209.91;;;-8.91;nan
69980;BME280;57318;56.232;43.944;2024-02-23T03:23:45;100205.63;;;-8.89;nan
69980;BME280;57318;56.232;43.944;2024-02-23T03:26:11;100197.88;;;-8.91;nan
69980;BME280;57318;56.232;43.944;2024-02-23T03:28:37;100205.59;;;-8.92;nan
69980;BME280;57318;56.232;43.944;2024-02-23T03:31:02;100200.44;;;-8.92;nan
69980;BME280;57318;56.232;43.944;2024-02-23T03:33:28;100198.69;;;-8.95;nan
69980;BME280;57318;56.232;43.944;2024-02-23T03:35:54;100200.41;;;-8.95;nan
69980;BME280;57318;56.232;43.944;2024-02-23T03:38:20;100205.56;;;-8.95;nan
69980;BME280;57318;56.232;43.944;2024-02-23T03:40:46;100187.47;;;-9.00;nan
69980;BME280;57318;56.232;43.944;2024-02-23T03:43:12;100192.69;;;-8.94;nan
69980;BME280;57318;56.232;43.944;2024-02-23T03:45:37;100199.59;;;-8.93;nan
69980;BME280;57318;56.232;43.944;2024-02-23T03:48:03;100199.59;;;-8.91;nan
69980;BME280;57318;56.232;43.944;2024-02-23T03:50:30;100203.78;;;-8.98;nan
69980;BME280;57318;56.232;43.944;2024-02-23T03:52:55;100211.63;;;-8.90;nan
69980;BME280;57318;56.232;43.944;2024-02-23T03:55:21;100204.78;;;-8.86;nan
69980;BME280;57318;56.232;43.944;2024-02-23T03:57:48;100214.28;;;-8.82;nan
69980;BME280;57318;56.232;43.944;2024-02-23T04:00:14;100213.41;;;-8.83;nan
69980;BME280;57318;56.232;43.944;2024-02-23T04:02:39;100211.75;;;-8.79;nan
69980;BME280;57318;56.232;43.944;2024-02-23T04:05:06;100209.16;;;-8.81;nan
69980;BME280;57318;56.232;43.944;2024-02-23T04:07:32;100214.34;;;-8.76;nan
69980;BME280;57318;56.232;43.944;2024-02-23T04:09:57;100211.78;;;-8.75;nan
69980;BME280;57318;56.232;43.944;2024-02-23T04:12:24;100222.09;;;-8.73;nan
69980;BME280;57318;56.232;43.944;2024-02-23T04:14:50;100220.38;;;-8.74;nan
69980;BME280;57318;56.232;43.944;2024-02-23T04:17:15;100228.19;;;-8.66;nan
69980;BME280;57318;56.232;43.944;2024-02-23T04:19:43;100224.78;;;-8.65;nan
69980;BME280;57318;56.232;43.944;2024-02-23T04:22:10;100230.75;;;-8.66;nan
69980;BME280;57318;56.232;43.944;2024-02-23T04:24:37;100206.75;;;-8.64;nan
69980;BME280;57318;56.232;43.944;2024-02-23T04:27:04;100214.50;;;-8.62;nan
69980;BME280;57318;56.232;43.944;2024-02-23T04:29:30;100220.50;;;-8.62;nan
69980;BME280;57318;56.232;43.944;2024-02-23T04:31:56;100217.09;;;-8.59;nan
69980;BME280;57318;56.232;43.944;2024-02-23T04:34:21;100217.13;;;-8.56;nan
69980;BME280;57318;56.232;43.944;2024-02-23T04:36:47;100223.13;;;-8.57;nan
69980;BME280;57318;56.232;43.944;2024-02-23T04:39:12;100212.84;;;-8.54;nan
69980;BME280;57318;56.232;43.944;2024-02-23T04:41:38;100215.41;;;-8.56;nan
69980;BME280;57318;56.232;43.944;2024-02-23T04:44:04;100217.16;;;-8.53;nan
69980;BME280;57318;56.232;43.944;2024-02-23T04:46:31;100220.59;;;-8.53;nan
69980;BME280;57318;56.232;43.944;2024-02-23T04:48:56;100225.78;;;-8.51;nan
69980;BME280;57318;56.232;43.944;2024-02-23T04:51:22;100214.66;;;-8.47;nan
69980;BME280;57318;56.232;43.944;2024-02-23T04:53:49;100225.84;;;-8.45;nan
69980;BME280;57318;56.232;43.944;2024-02-23T04:56:15;100234.44;;;-8.40;nan
69980;BME280;57318;56.232;43.944;2024-02-23T04:58:40;100231.00;;;-8.40;nan
69980;BME280;57318;56.232;43.944;2024-02-23T05:01:08;100223.31;;;-8.37;nan
69980;BME280;57318;56.232;43.944;2024-02-23T05:03:34;100237.97;;;-8.28;nan
69980;BME280;57318;56.232;43.944;2024-02-23T05:06:00;100222.50;;;-8.30;nan
69980;BME280;57318;56.232;43.944;2024-02-23T05:08:25;100227.66;;;-8.30;nan
69980;BME280;57318;56.232;43.944;2024-02-23T05:10:53;100238.00;;;-8.24;nan
69980;BME280;57318;56.232;43.944;2024-02-23T05:13:18;100232.03;;;-8.21;nan
69980;BME280;57318;56.232;43.944;2024-02-23T05:15:44;100235.53;;;-8.14;nan
69980;BME280;57318;56.232;43.944;2024-02-23T05:18:10;100244.94;;;-8.21;nan
69980;BME280;57318;56.232;43.944;2024-02-23T05:20:36;100227.00;;;-8.06;nan
69980;BME280;57318;56.232;43.944;2024-02-23T05:23:01;100244.22;;;-8.02;nan
69980;BME280;57318;56.232;43.944;2024-02-23T05:25:27;100238.25;;;-7.96;nan
69980;BME280;57318;56.232;43.944;2024-02-23T05:27:53;100250.41;;;-7.86;nan
69980;BME280;57318;56.232;43.944;2024-02-23T05:30:19;100250.44;;;-7.75;nan
69980;BME280;57318;56.232;43.944;2024-02-23T05:32:44;100247.06;;;-7.71;nan
69980;BME280;57318;56.232;43.944;2024-02-23T05:35:10;100252.28;;;-7.63;nan
69980;BME280;57318;56.232;43.944;2024-02-23T05:37:36;100240.19;;;-7.66;nan
69980;BME280;57318;56.232;43.944;2024-02-23T05:40:03;100238.56;;;-7.56;nan
69980;BME280;57318;56.232;43.944;2024-02-23T05:42:37;100243.72;;;-7.56;nan
69980;BME280;57318;56.232;43.944;2024-02-23T05:45:03;100243.72;;;-7.57;nan
69980;BME280;57318;56.232;43.944;2024-02-23T05:47:40;100242.88;;;-7.50;nan
69980;BME280;57318;56.232;43.944;2024-02-23T05:50:08;100243.75;;;-7.47;nan
69980;BME280;57318;56.232;43.944;2024-02-23T05:52:34;100242.84;;;-7.56;nan
69980;BME280;57318;56.232;43.944;2024-02-23T05:55:02;100258.38;;;-7.50;nan
69980;BME280;57318;56.232;43.944;2024-02-23T05:57:29;100250.69;;;-7.41;nan
69980;BME280;57318;56.232;43.944;2024-02-23T05:59:55;100244.69;;;-7.40;nan
69980;BME280;57318;56.232;43.944;2024-02-23T06:02:23;100241.19;;;-7.44;nan
69980;BME280;57318;56.232;43.944;2024-02-23T06:04:49;100251.56;;;-7.36;nan
69980;BME280;57318;56.232;43.944;2024-02-23T06:07:15;100250.72;;;-7.38;nan
69980;BME280;57318;56.232;43.944;2024-02-23T06:09:46;100267.09;;;-7.33;nan
69980;BME280;57318;56.232;43.944;2024-02-23T06:12:11;100261.16;;;-7.21;nan
69980;BME280;57318;56.232;43.944;2024-02-23T06:14:37;100251.63;;;-7.30;nan
69980;BME280;57318;56.232;43.944;2024-02-23T06:17:03;100268.03;;;-7.15;nan
69980;BME280;57318;56.232;43.944;2024-02-23T06:19:29;100281.03;;;-7.00;nan
69980;BME280;57318;56.232;43.944;2024-02-23T06:21:55;100284.53;;;-6.85;nan
69980;BME280;57318;56.232;43.944;2024-02-23T06:24:20;100285.47;;;-6.74;nan
69980;BME280;57318;56.232;43.944;2024-02-23T06:26:46;100282.06;;;-6.64;nan
69980;BME280;57318;56.232;43.944;2024-02-23T06:29:15;100282.91;;;-6.60;nan
69980;BME280;57318;56.232;43.944;2024-02-23T06:31:40;100285.53;;;-6.53;nan
69980;BME280;57318;56.232;43.944;2024-02-23T06:34:07;100285.56;;;-6.48;nan
69980;BME280;57318;56.232;43.944;2024-02-23T06:36:33;100280.41;;;-6.37;nan
69980;BME280;57318;56.232;43.944;2024-02-23T06:38:59;100285.59;;;-6.29;nan
69980;BME280;57318;56.232;43.944;2024-02-23T06:41:24;100279.56;;;-6.30;nan
69980;BME280;57318;56.232;43.944;2024-02-23T06:43:50;100294.22;;;-6.26;nan
69980;BME280;57318;56.232;43.944;2024-02-23T06:46:18;100300.31;;;-6.11;nan
69980;BME280;57318;56.232;43.944;2024-02-23T06:48:45;100288.22;;;-5.94;nan
69980;BME280;57318;56.232;43.944;2024-02-23T06:51:11;100298.59;;;-5.88;nan
69980;BME280;57318;56.232;43.944;2024-02-23T06:53:37;100291.69;;;-5.76;nan
69980;BME280;57318;56.232;43.944;2024-02-23T06:56:03;100302.03;;;-5.64;nan
69980;BME280;57318;56.232;43.944;2024-02-23T06:58:29;100301.16;;;-5.49;nan
69980;BME280;57318;56.232;43.944;2024-02-23T07:00:55;100309.78;;;-5.41;nan
69980;BME280;57318;56.232;43.944;2024-02-23T07:03:20;100310.66;;;-5.40;nan
69980;BME280;57318;56.232;43.944;2024-02-23T07:05:46;100315.84;;;-5.37;nan
69980;BME280;57318;56.232;43.944;2024-02-23T07:08:13;100319.25;;;-5.12;nan
69980;BME280;57318;56.232;43.944;2024-02-23T07:10:38;100321.00;;;-5.28;nan
69980;BME280;57318;56.232;43.944;2024-02-23T07:13:05;100314.94;;;-5.16;nan
69980;BME280;57318;56.232;43.944;2024-02-23T07:15:32;100314.09;;;-5.14;nan
69980;BME280;57318;56.232;43.944;2024-02-23T07:17:58;100317.50;;;-5.02;nan
69980;BME280;57318;56.232;43.944;2024-02-23T07:20:24;100320.06;;;-4.88;nan
69980;BME280;57318;56.232;43.944;2024-02-23T07:22:49;100320.91;;;-4.79;nan
69980;BME280;57318;56.232;43.944;2024-02-23T07:25:16;100332.09;;;-4.69;nan
69980;BME280;57318;56.232;43.944;2024-02-23T07:27:42;100328.66;;;-4.76;nan
69980;BME280;57318;56.232;43.944;2024-02-23T07:30:09;100334.66;;;-4.63;nan
69980;BME280;57318;56.232;43.944;2024-02-23T07:32:35;100330.34;;;-4.70;nan
69980;BME280;57318;56.232;43.944;2024-02-23T07:35:01;100320.03;;;-4.75;nan
69980;BME280;57318;56.232;43.944;2024-02-23T07:37:29;100330.34;;;-4.62;nan
69980;BME280;57318;56.232;43.944;2024-02-23T07:39:55;100323.47;;;-4.76;nan
69980;BME280;57318;56.232;43.944;2024-02-23T07:42:21;100327.81;;;-4.81;nan
69980;BME280;57318;56.232;43.944;2024-02-23T07:44:47;100321.75;;;-4.77;nan
69980;BME280;57318;56.232;43.944;2024-02-23T07:47:13;100331.25;;;-4.73;nan
69980;BME280;57318;56.232;43.944;2024-02-23T07:49:38;100316.56;;;-4.75;nan
69980;BME280;57318;56.232;43.944;2024-02-23T07:52:06;100321.78;;;-4.87;nan
69980;BME280;57318;56.232;43.944;2024-02-23T07:54:32;100316.56;;;-4.77;nan
69980;BME280;57318;56.232;43.944;2024-02-23T07:56:58;100319.97;;;-4.68;nan
69980;BME280;57318;56.232;43.944;2024-02-23T07:59:24;100320.84;;;-4.62;nan
69980;BME280;57318;56.232;43.944;2024-02-23T08:01:50;100321.63;;;-4.43;nan
69980;BME280;57318;56.232;43.944;2024-02-23T08:04:16;100331.09;;;-4.42;nan
69980;BME280;57318;56.232;43.944;2024-02-23T08:06:42;100331.19;;;-4.51;nan
69980;BME280;57318;56.232;43.944;2024-02-23T08:09:10;100326.00;;;-4.54;nan
69980;BME280;57318;56.232;43.944;2024-02-23T08:11:36;100334.56;;;-4.33;nan
69980;BME280;57318;56.232;43.944;2024-02-23T08:14:02;100331.16;;;-4.48;nan
69980;BME280;57318;56.232;43.944;2024-02-23T08:16:28;100327.59;;;-4.28;nan
69980;BME280;57318;56.232;43.944;2024-02-23T08:18:54;100326.78;;;-4.37;nan
69980;BME280;57318;56.232;43.944;2024-02-23T08:21:20;100339.63;;;-4.13;nan
69980;BME280;57318;56.232;43.944;2024-02-23T08:23:46;100339.59;;;-4.12;nan
69980;BME280;57318;56.232;43.944;2024-02-23T08:26:12;100337.03;;;-4.15;nan
69980;BME280;57318;56.232;43.944;2024-02-23T08:28:38;100336.13;;;-4.06;nan
69980;BME280;57318;56.232;43.944;2024-02-23T08:31:03;100340.44;;;-4.02;nan
69980;BME280;57318;56.232;43.944;2024-02-23T08:33:29;100351.63;;;-3.92;nan
69980;BME280;57318;56.232;43.944;2024-02-23T08:35:55;100340.38;;;-3.88;nan
69980;BME280;57318;56.232;43.944;2024-02-23T08:38:20;100343.84;;;-3.92;nan
69980;BME280;57318;56.232;43.944;2024-02-23T08:40:46;100337.84;;;-4.01;nan
69980;BME280;57318;56.232;43.944;2024-02-23T08:43:13;100347.38;;;-4.10;nan
69980;BME280;57318;56.232;43.944;2024-02-23T08:45:39;100351.78;;;-4.22;nan
69980;BME280;57318;56.232;43.944;2024-02-23T08:48:05;100348.38;;;-4.33;nan
69980;BME280;57318;56.232;43.944;2024-02-23T08:50:30;100344.91;;;-4.30;nan
69980;BME280;57318;56.232;43.944;2024-02-23T08:52:56;100329.34;;;-4.30;nan
69980;BME280;57318;56.232;43.944;2024-02-23T08:55:22;100343.13;;;-4.16;nan
69980;BME280;57318;56.232;43.944;2024-02-23T08:57:47;100339.31;;;-3.63;nan
69980;BME280;57318;56.232;43.944;2024-02-23T09:00:14;100347.41;;;-2.99;nan
69980;BME280;57318;56.232;43.944;2024-02-23T09:02:41;100343.19;;;-3.11;nan
69980;BME280;57318;56.232;43.944;2024-02-23T09:05:09;100341.09;;;-2.73;nan
69980;BME280;57318;56.232;43.944;2024-02-23T09:07:35;100341.56;;;-2.40;nan
69980;BME280;57318;56.232;43.944;2024-02-23T09:10:02;100345.69;;;-2.25;nan
69980;BME280;57318;56.232;43.944;2024-02-23T09:12:30;100344.19;;;-1.79;nan
69980;BME280;57318;56.232;43.944;2024-02-23T09:14:56;100334.19;;;-0.98;nan
69980;BME280;57318;56.232;43.944;2024-02-23T09:17:21;100341.63;;;-0.77;nan
69980;BME280;57318;56.232;43.944;2024-02-23T09:23:53;100334.13;;;-1.47;nan
69980;BME280;57318;56.232;43.944;2024-02-23T09:26:19;100349.53;;;-1.89;nan
69980;BME280;57318;56.232;43.944;2024-02-23T09:28:44;100337.38;;;-1.87;nan
69980;BME280;57318;56.232;43.944;2024-02-23T09:31:11;100345.28;;;-1.94;nan
69980;BME280;57318;56.232;43.944;2024-02-23T09:33:36;100343.53;;;-1.94;nan
69980;BME280;57318;56.232;43.944;2024-02-23T09:36:02;100359.22;;;-1.98;nan
69980;BME280;57318;56.232;43.944;2024-02-23T09:38:28;100349.75;;;-2.01;nan
69980;BME280;57318;56.232;43.944;2024-02-23T09:40:54;100343.75;;;-2.09;nan
69980;BME280;57318;56.232;43.944;2024-02-23T09:43:21;100346.44;;;-2.17;nan
69980;BME280;57318;56.232;43.944;2024-02-23T09:45:52;100364.63;;;-2.14;nan
69980;BME280;57318;56.232;43.944;2024-02-23T09:48:18;100361.25;;;-2.21;nan
69980;BME280;57318;56.232;43.944;2024-02-23T09:50:44;100378.03;;;-2.43;nan
69980;BME280;57318;56.232;43.944;2024-02-23T09:53:12;100378.13;;;-2.52;nan
69980;BME280;57318;56.232;43.944;2024-02-23T09:55:38;100372.25;;;-2.70;nan
69980;BME280;57318;56.232;43.944;2024-02-23T09:58:06;100374.09;;;-2.78;nan
69980;BME280;57318;56.232;43.944;2024-02-23T10:00:34;100371.53;;;-2.81;nan
69980;BME280;57318;56.232;43.944;2024-02-23T10:03:02;100360.94;;;-2.66;nan
69980;BME280;57318;56.232;43.944;2024-02-23T10:05:30;100366.16;;;-2.69;nan
69980;BME280;57318;56.232;43.944;2024-02-23T10:07:57;100373.06;;;-2.65;nan
69980;BME280;57318;56.232;43.944;2024-02-23T10:10:33;100371.88;;;-2.36;nan
69980;BME280;57318;56.232;43.944;2024-02-23T10:13:00;100374.31;;;-2.24;nan
69980;BME280;57318;56.232;43.944;2024-02-23T10:15:29;100369.88;;;-2.17;nan
69980;BME280;57318;56.232;43.944;2024-02-23T10:17:55;100379.50;;;-2.21;nan
69980;BME280;57318;56.232;43.944;2024-02-23T10:20:21;100381.38;;;-2.33;nan
69980;BME280;57318;56.232;43.944;2024-02-23T10:22:47;100379.66;;;-2.36;nan
69980;BME280;57318;56.232;43.944;2024-02-23T10:25:12;100376.19;;;-2.35;nan
69980;BME280;57318;56.232;43.944;2024-02-23T10:27:40;100379.63;;;-2.33;nan
69980;BME280;57318;56.232;43.944;2024-02-23T10:30:07;100378.81;;;-2.37;nan
69980;BME280;57318;56.232;43.944;2024-02-23T10:32:36;100379.59;;;-2.30;nan
69980;BME280;57318;56.232;43.944;2024-02-23T10:35:08;100383.13;;;-2.34;nan
69980;BME280;57318;56.232;43.944;2024-02-23T10:37:38;100377.44;;;-2.67;nan
69980;BME280;57318;56.232;43.944;2024-02-23T10:40:06;100384.34;;;-2.67;nan
69980;BME280;57318;56.232;43.944;2024-02-23T10:42:36;100389.44;;;-2.57;nan
69980;BME280;57318;56.232;43.944;2024-02-23T10:45:05;100391.94;;;-2.47;nan
69980;BME280;57318;56.232;43.944;2024-02-23T10:47:32;100388.44;;;-2.43;nan
69980;BME280;57318;56.232;43.944;2024-02-23T10:49:59;100398.09;;;-2.53;nan
69980;BME280;57318;56.232;43.944;2024-02-23T10:52:26;100405.13;;;-2.64;nan
69980;BME280;57318;56.232;43.944;2024-02-23T10:54:52;100402.72;;;-2.78;nan
69980;BME280;57318;56.232;43.944;2024-02-23T10:57:18;100401.88;;;-2.85;nan
69980;BME280;57318;56.232;43.944;2024-02-23T10:59:46;100412.28;;;-2.86;nan
69980;BME280;57318;56.232;43.944;2024-02-23T11:02:12;100420.97;;;-2.86;nan
69980;BME280;57318;56.232;43.944;2024-02-23T11:04:42;100416.03;;;-3.15;nan
69980;BME280;57318;56.232;43.944;2024-02-23T11:07:14;100411.41;;;-2.84;nan
69980;BME280;57318;56.232;43.944;2024-02-23T11:09:40;100426.19;;;-2.84;nan
69980;BME280;57318;56.232;43.944;2024-02-23T11:12:06;100416.63;;;-2.85;nan
69980;BME280;57318;56.232;43.944;2024-02-23T11:14:34;100426.19;;;-2.86;nan
69980;BME280;57318;56.232;43.944;2024-02-23T11:17:01;100421.97;;;-3.01;nan
69980;BME280;57318;56.232;43.944;2024-02-23T11:19:38;100423.00;;;-3.19;nan
69980;BME280;57318;56.232;43.944;2024-02-23T11:22:04;100432.47;;;-3.13;nan
69980;BME280;57318;56.232;43.944;2024-02-23T11:24:31;100424.69;;;-3.15;nan
69980;BME280;57318;56.232;43.944;2024-02-23T11:27:01;100415.97;;;-3.09;nan
69980;BME280;57318;56.232;43.944;2024-02-23T11:29:34;100423.78;;;-3.09;nan
69980;BME280;57318;56.232;43.944;2024-02-23T11:32:02;100419.44;;;-3.10;nan
69980;BME280;57318;56.232;43.944;2024-02-23T11:34:30;100423.69;;;-2.97;nan
69980;BME280;57318;56.232;43.944;2024-02-23T11:36:56;100419.25;;;-2.88;nan
69980;BME280;57318;56.232;43.944;2024-02-23T11:39:23;100423.63;;;-2.91;nan
69980;BME280;57318;56.232;43.944;2024-02-23T11:41:49;100441.63;;;-2.70;nan
69980;BME280;57318;56.232;43.944;2024-02-23T11:44:16;100439.19;;;-2.87;nan
69980;BME280;57318;56.232;43.944;2024-02-23T11:46:44;100429.66;;;-2.87;nan
69980;BME280;57318;56.232;43.944;2024-02-23T11:49:13;100432.38;;;-3.01;nan
69980;BME280;57318;56.232;43.944;2024-02-23T11:51:39;100423.78;;;-3.09;nan
69980;BME280;57318;56.232;43.944;2024-02-23T11:54:06;100416.78;;;-3.04;nan
69980;BME280;57318;56.232;43.944;2024-02-23T11:56:31;100423.84;;;-3.17;nan
69980;BME280;57318;56.232;43.944;2024-02-23T11:58:57;100425.59;;;-3.20;nan
69980;BME280;57318;56.232;43.944;2024-02-23T12:01:23;100437.72;;;-3.22;nan
69980;BME280;57318;56.232;43.944;2024-02-23T12:03:49;100436.09;;;-3.33;nan
69980;BME280;57318;56.232;43.944;2024-02-23T12:06:15;100445.47;;;-3.13;nan
69980;BME280;57318;56.232;43.944;2024-02-23T12:08:41;100436.72;;;-3.00;nan
69980;BME280;57318;56.232;43.944;2024-02-23T12:11:08;100446.19;;;-2.96;nan
69980;BME280;57318;56.232;43.944;2024-02-23T12:13:35;100444.56;;;-3.06;nan
69980;BME280;57318;56.232;43.944;2024-02-23T12:16:01;100450.66;;;-3.12;nan
69980;BME280;57318;56.232;43.944;2024-02-23T12:18:28;100452.44;;;-3.17;nan
69980;BME280;57318;56.232;43.944;2024-02-23T12:21:00;100448.13;;;-3.24;nan
69980;BME280;57318;56.232;43.944;2024-02-23T12:23:55;100440.47;;;-3.38;nan
69980;BME280;57318;56.232;43.944;2024-02-23T12:26:21;100450.94;;;-3.52;nan
69980;BME280;57318;56.232;43.944;2024-02-23T12:28:47;100447.66;;;-3.83;nan
69980;BME280;57318;56.232;43.944;2024-02-23T12:31:13;100447.72;;;-3.97;nan
69980;BME280;57318;56.232;43.944;2024-02-23T12:33:40;100450.31;;;-4.00;nan
69980;BME280;57318;56.232;43.944;2024-02-23T12:36:07;100442.56;;;-4.09;nan
69980;BME280;57318;56.232;43.944;2024-02-23T12:38:33;100452.13;;;-4.13;nan
69980;BME280;57318;56.232;43.944;2024-02-23T12:41:00;100446.03;;;-4.15;nan
69980;BME280;57318;56.232;43.944;2024-02-23T12:43:26;100440.84;;;-4.12;nan
69980;BME280;57318;56.232;43.944;2024-02-23T12:45:53;100433.94;;;-4.13;nan
69980;BME280;57318;56.232;43.944;2024-02-23T12:48:22;100444.34;;;-4.19;nan
69980;BME280;57318;56.232;43.944;2024-02-23T12:50:49;100448.69;;;-4.24;nan
69980;BME280;57318;56.232;43.944;2024-02-23T12:53:34;100427.06;;;-4.31;nan
69980;BME280;57318;56.232;43.944;2024-02-23T12:56:02;100431.44;;;-4.41;nan
69980;BME280;57318;56.232;43.944;2024-02-23T12:58:28;100425.41;;;-4.44;nan
69980;BME280;57318;56.232;43.944;2024-02-23T13:00:54;100431.44;;;-4.47;nan